createdAt,value
2019-03-01T00:00:04.902Z,1.90
2019-03-01T00:02:39.362Z,1.80
2019-03-01T00:05:51.342Z,1.80
2019-03-01T00:08:32.475Z,1.80
2019-03-01T00:11:41.554Z,1.80
2019-03-01T00:14:43.165Z,1.80
2019-03-01T00:17:38.953Z,1.90
2019-03-01T00:20:54.269Z,1.90
2019-03-01T00:24:17.174Z,1.90
2019-03-01T00:27:32.302Z,1.80
2019-03-01T00:30:46.265Z,1.80
2019-03-01T00:34:04.090Z,1.80
2019-03-01T00:37:06.849Z,1.80
2019-03-01T00:39:49.398Z,1.80
2019-03-01T00:42:47.834Z,1.80
2019-03-01T00:45:18.931Z,1.80
2019-03-01T00:47:49.930Z,1.80
2019-03-01T00:50:20.904Z,1.80
2019-03-01T00:52:51.870Z,1.80
2019-03-01T00:55:22.846Z,1.80
2019-03-01T00:57:53.829Z,1.70
2019-03-01T01:00:29.945Z,1.60
2019-03-01T01:03:01.025Z,1.40
2019-03-01T01:05:33.062Z,1.40
2019-03-01T01:08:04.042Z,1.30
2019-03-01T01:10:35.005Z,1.30
2019-03-01T01:13:06.187Z,1.40
2019-03-01T01:15:37.143Z,1.30
2019-03-01T01:18:08.101Z,1.20
2019-03-01T01:20:39.090Z,1.20
2019-03-01T01:23:10.050Z,1.30
2019-03-01T01:25:41.098Z,1.40
2019-03-01T01:28:12.058Z,1.50
2019-03-01T01:30:43.054Z,1.60
2019-03-01T01:33:14.020Z,1.80
2019-03-01T01:35:44.988Z,2.00
2019-03-01T01:38:15.950Z,2.00
2019-03-01T01:40:46.922Z,2.00
2019-03-01T01:43:19.258Z,2.00
2019-03-01T01:45:51.738Z,2.00
2019-03-01T01:48:22.898Z,1.90
2019-03-01T01:50:53.865Z,2.00
2019-03-01T01:53:24.855Z,2.00
2019-03-01T01:55:55.814Z,2.10
2019-03-01T01:58:26.779Z,2.20
2019-03-01T02:00:57.750Z,2.20
2019-03-01T02:03:28.722Z,2.10
2019-03-01T02:06:00.086Z,2.10
2019-03-01T02:08:31.142Z,2.10
2019-03-01T02:11:02.105Z,2.20
2019-03-01T02:13:32.994Z,2.20
2019-03-01T02:16:05.062Z,2.30
2019-03-01T02:18:36.024Z,2.30
2019-03-01T02:21:07.348Z,2.30
2019-03-01T02:23:40.078Z,2.40
2019-03-01T02:26:10.896Z,2.40
2019-03-01T02:28:42.351Z,2.40
2019-03-01T02:31:14.097Z,2.40
2019-03-01T02:33:45.150Z,2.50
2019-03-01T02:36:16.163Z,2.50
2019-03-01T02:38:47.177Z,2.50
2019-03-01T02:41:18.093Z,2.50
2019-03-01T02:43:49.063Z,2.40
2019-03-01T02:46:20.043Z,2.50
2019-03-01T02:48:50.999Z,2.50
2019-03-01T02:51:33.896Z,2.50
2019-03-01T02:54:04.895Z,2.50
2019-03-01T02:56:35.879Z,2.50
2019-03-01T02:59:07.214Z,2.50
2019-03-01T03:01:38.214Z,2.40
2019-03-01T03:04:09.102Z,2.40
2019-03-01T03:07:02.179Z,2.40
2019-03-01T03:09:33.137Z,2.50
2019-03-01T03:12:04.179Z,2.50
2019-03-01T03:14:35.218Z,2.40
2019-03-01T03:19:36.411Z,2.50
2019-03-01T03:22:08.471Z,2.50
2019-03-01T03:24:39.430Z,2.50
2019-03-01T03:27:10.428Z,2.50
2019-03-01T03:29:41.400Z,2.50
2019-03-01T03:32:12.371Z,2.50
2019-03-01T03:34:43.336Z,2.60
2019-03-01T03:37:14.365Z,2.60
2019-03-01T03:42:15.422Z,2.60
2019-03-01T03:44:58.658Z,2.60
2019-03-01T03:47:29.658Z,2.70
2019-03-01T03:50:00.894Z,2.70
2019-03-01T03:52:31.952Z,2.70
2019-03-01T03:55:03.271Z,2.70
2019-03-01T03:57:34.568Z,2.80
2019-03-01T04:00:07.184Z,2.80
2019-03-01T04:02:38.350Z,2.80
2019-03-01T04:05:09.422Z,2.80
2019-03-01T04:07:41.026Z,2.80
2019-03-01T04:10:12.370Z,2.80
2019-03-01T04:12:43.338Z,2.80
2019-03-01T04:15:14.465Z,2.80
2019-03-01T04:17:45.445Z,2.80
2019-03-01T04:20:17.169Z,2.80
2019-03-01T04:22:48.154Z,2.80
2019-03-01T04:25:19.131Z,2.80
2019-03-01T04:27:50.418Z,2.80
2019-03-01T04:30:21.398Z,2.70
2019-03-01T04:32:52.849Z,2.70
2019-03-01T04:35:23.926Z,2.80
2019-03-01T04:37:54.903Z,2.70
2019-03-01T04:40:25.897Z,2.70
2019-03-01T04:42:56.880Z,2.70
2019-03-01T04:45:28.244Z,2.70
2019-03-01T04:47:59.215Z,2.70
2019-03-01T04:50:30.250Z,2.70
2019-03-01T04:53:01.222Z,2.70
2019-03-01T04:55:32.292Z,2.70
2019-03-01T04:58:03.266Z,2.70
2019-03-01T05:00:34.314Z,2.70
2019-03-01T05:03:05.309Z,2.70
2019-03-01T05:05:36.199Z,2.70
2019-03-01T05:08:07.238Z,2.80
2019-03-01T05:10:38.202Z,2.80
2019-03-01T05:15:39.228Z,2.80
2019-03-01T05:18:10.298Z,2.80
2019-03-01T05:20:41.284Z,2.80
2019-03-01T05:23:12.658Z,2.80
2019-03-01T05:25:43.970Z,2.90
2019-03-01T05:28:18.278Z,2.80
2019-03-01T05:30:53.470Z,2.80
2019-03-01T05:36:07.463Z,2.70
2019-03-01T05:38:38.478Z,2.70
2019-03-01T05:43:39.593Z,2.70
2019-03-01T05:46:10.567Z,2.70
2019-03-01T05:48:41.529Z,2.70
2019-03-01T05:51:12.430Z,2.80
2019-03-01T05:53:43.538Z,2.90
2019-03-01T05:56:15.030Z,2.80
2019-03-01T05:58:50.527Z,2.90
2019-03-01T06:01:58.550Z,2.90
2019-03-01T06:04:33.774Z,2.90
2019-03-01T06:10:14.210Z,2.90
2019-03-01T06:13:11.574Z,2.90
2019-03-01T06:15:54.129Z,2.90
2019-03-01T06:19:04.936Z,3.00
2019-03-01T06:22:08.379Z,3.10
2019-03-01T06:25:11.185Z,3.00
2019-03-01T06:28:29.378Z,3.00
2019-03-01T06:37:16.641Z,3.20
2019-03-01T06:40:40.641Z,3.10
2019-03-01T06:48:53.616Z,3.20
2019-03-01T06:51:29.106Z,3.30
2019-03-01T06:54:00.035Z,3.40
2019-03-01T06:56:31.002Z,3.40
2019-03-01T06:59:03.890Z,3.50
2019-03-01T07:01:40.218Z,3.60
2019-03-01T07:04:21.555Z,3.70
2019-03-01T07:06:52.570Z,3.70
2019-03-01T07:09:23.559Z,3.50
2019-03-01T07:11:54.566Z,3.50
2019-03-01T07:14:25.636Z,3.40
2019-03-01T07:16:56.625Z,3.50
2019-03-01T07:19:27.513Z,3.50
2019-03-01T07:21:58.522Z,3.60
2019-03-01T07:24:29.503Z,3.60
2019-03-01T07:27:00.530Z,3.70
2019-03-01T07:29:31.578Z,3.80
2019-03-01T07:32:02.630Z,3.90
2019-03-01T07:34:33.726Z,3.90
2019-03-01T07:37:04.704Z,3.80
2019-03-01T07:39:35.714Z,3.90
2019-03-01T07:42:06.678Z,3.80
2019-03-01T07:44:37.702Z,3.80
2019-03-01T07:47:08.663Z,3.90
2019-03-01T07:49:39.649Z,3.90
2019-03-01T07:52:10.666Z,4.10
2019-03-01T07:57:14.777Z,4.40
2019-03-01T07:59:44.477Z,4.50
2019-03-01T08:02:15.523Z,4.30
2019-03-01T08:04:46.514Z,4.50
2019-03-01T08:07:20.549Z,4.50
2019-03-01T08:09:50.118Z,4.50
2019-03-01T08:12:21.098Z,4.50
2019-03-01T08:14:52.063Z,4.80
2019-03-01T08:17:24.215Z,4.80
2019-03-01T08:19:58.633Z,5.10
2019-03-01T08:22:27.864Z,5.30
2019-03-01T08:24:58.869Z,5.30
2019-03-01T08:27:29.910Z,5.50
2019-03-01T08:30:00.974Z,5.60
2019-03-01T08:32:32.042Z,5.60
2019-03-01T08:35:05.108Z,5.40
2019-03-01T08:37:35.670Z,5.30
2019-03-01T08:40:11.518Z,4.90
2019-03-01T08:42:41.524Z,4.90
2019-03-01T08:45:14.386Z,4.90
2019-03-01T08:47:45.369Z,4.80
2019-03-01T08:50:18.147Z,5.10
2019-03-01T08:52:49.178Z,5.10
2019-03-01T08:55:20.406Z,5.10
2019-03-01T08:57:51.546Z,5.20
2019-03-01T09:00:26.862Z,5.20
2019-03-01T09:02:59.583Z,5.40
2019-03-01T09:05:30.603Z,5.60
2019-03-01T09:08:01.650Z,5.50
2019-03-01T09:10:33.632Z,5.60
2019-03-01T09:13:04.714Z,5.90
2019-03-01T09:15:36.904Z,5.80
2019-03-01T09:18:11.428Z,5.90
2019-03-01T09:20:42.526Z,6.00
2019-03-01T09:23:22.873Z,6.10
2019-03-01T09:25:46.146Z,6.60
2019-03-01T09:28:17.226Z,6.70
2019-03-01T09:30:48.482Z,6.60
2019-03-01T09:33:21.262Z,6.60
2019-03-01T09:35:56.122Z,6.30
2019-03-01T09:38:27.206Z,6.30
2019-03-01T09:41:01.218Z,6.40
2019-03-01T09:43:31.883Z,6.00
2019-03-01T09:46:02.870Z,6.00
2019-03-01T09:48:34.034Z,5.70
2019-03-01T09:51:07.304Z,5.70
2019-03-01T09:53:38.385Z,5.90
2019-03-01T09:56:09.772Z,6.00
2019-03-01T09:58:42.118Z,6.10
2019-03-01T10:01:15.657Z,6.10
2019-03-01T10:03:47.438Z,6.20
2019-03-01T10:06:18.498Z,6.60
2019-03-01T10:08:49.529Z,6.60
2019-03-01T10:11:20.582Z,6.70
2019-03-01T10:13:51.603Z,6.80
2019-03-01T10:16:22.582Z,6.80
2019-03-01T10:18:53.653Z,6.70
2019-03-01T10:21:25.490Z,6.60
2019-03-01T10:23:56.514Z,6.60
2019-03-01T10:26:27.495Z,6.60
2019-03-01T10:28:58.498Z,6.70
2019-03-01T10:31:29.487Z,6.60
2019-03-01T10:34:00.532Z,6.30
2019-03-01T10:36:31.558Z,6.20
2019-03-01T10:39:02.942Z,6.20
2019-03-01T10:41:35.529Z,6.10
2019-03-01T10:44:06.513Z,6.10
2019-03-01T10:46:38.592Z,6.30
2019-03-01T10:49:09.682Z,6.70
2019-03-01T10:51:40.737Z,6.70
2019-03-01T10:54:11.769Z,7.30
2019-03-01T10:56:42.740Z,7.50
2019-03-01T10:59:13.732Z,7.60
2019-03-01T11:01:44.801Z,7.60
2019-03-01T11:04:15.872Z,7.40
2019-03-01T11:06:46.989Z,7.40
2019-03-01T11:11:48.214Z,7.90
2019-03-01T11:14:19.224Z,7.70
2019-03-01T11:16:50.296Z,7.70
2019-03-01T11:19:21.302Z,8.10
2019-03-01T11:21:52.313Z,8.40
2019-03-01T11:24:23.309Z,8.70
2019-03-01T11:26:54.310Z,9.40
2019-03-01T11:29:25.317Z,9.70
2019-03-01T11:31:56.296Z,10.00
2019-03-01T11:34:27.329Z,10.30
2019-03-01T11:36:58.417Z,10.50
2019-03-01T11:39:29.477Z,10.50
2019-03-01T11:42:00.510Z,9.50
2019-03-01T11:44:31.578Z,9.20
2019-03-01T11:47:02.553Z,9.40
2019-03-01T11:49:33.677Z,10.10
2019-03-01T11:52:04.700Z,10.00
2019-03-01T11:54:35.692Z,9.50
2019-03-01T11:57:06.708Z,9.40
2019-03-01T11:59:37.809Z,9.30
2019-03-01T12:02:08.801Z,10.90
2019-03-01T12:04:39.921Z,13.60
2019-03-01T12:07:10.930Z,13.60
2019-03-01T12:09:41.956Z,15.50
2019-03-01T12:12:14.186Z,14.90
2019-03-01T12:14:46.285Z,12.70
2019-03-01T12:17:17.298Z,12.60
2019-03-01T12:19:48.409Z,10.50
2019-03-01T12:24:49.572Z,10.50
2019-03-01T12:27:20.564Z,11.10
2019-03-01T12:29:51.666Z,12.40
2019-03-01T12:32:22.653Z,15.20
2019-03-01T12:34:53.626Z,17.50
2019-03-01T12:37:24.672Z,17.40
2019-03-01T12:39:56.759Z,20.40
2019-03-01T12:42:27.731Z,22.10
2019-03-01T12:44:58.806Z,21.50
2019-03-01T12:47:29.918Z,20.70
2019-03-01T12:50:00.990Z,17.80
2019-03-01T12:52:32.034Z,17.10
2019-03-01T12:55:03.041Z,14.80
2019-03-01T12:57:34.030Z,13.40
2019-03-01T13:00:07.043Z,13.30
2019-03-01T13:02:38.085Z,13.00
2019-03-01T13:05:09.523Z,12.70
2019-03-01T13:07:40.567Z,12.90
2019-03-01T13:10:14.570Z,13.50
2019-03-01T13:12:45.550Z,14.40
2019-03-01T13:15:16.611Z,14.70
2019-03-01T13:17:47.653Z,14.60
2019-03-01T13:20:19.937Z,14.30
2019-03-01T13:22:50.978Z,13.80
2019-03-01T13:25:21.994Z,12.70
2019-03-01T13:27:53.707Z,12.60
2019-03-01T13:30:24.815Z,12.80
2019-03-01T13:32:59.021Z,13.00
2019-03-01T13:35:28.644Z,13.40
2019-03-01T13:37:59.621Z,13.90
2019-03-01T13:40:30.626Z,13.60
2019-03-01T13:43:01.594Z,12.70
2019-03-01T13:45:32.631Z,12.30
2019-03-01T13:48:03.604Z,12.10
2019-03-01T13:50:34.694Z,11.50
2019-03-01T13:53:06.579Z,10.90
2019-03-01T13:55:37.831Z,10.30
2019-03-01T13:58:08.882Z,10.10
2019-03-01T14:00:39.966Z,9.90
2019-03-01T14:03:11.010Z,9.70
2019-03-01T14:05:42.167Z,9.40
2019-03-01T14:08:13.174Z,9.20
2019-03-01T14:10:44.143Z,9.10
2019-03-01T14:13:15.726Z,8.90
2019-03-01T14:15:46.803Z,8.20
2019-03-01T14:18:17.798Z,8.20
2019-03-01T14:20:48.786Z,8.10
2019-03-01T14:23:21.319Z,8.30
2019-03-01T14:25:54.551Z,8.40
2019-03-01T14:28:25.066Z,8.10
2019-03-01T14:30:56.126Z,7.80
2019-03-01T14:33:29.942Z,7.40
2019-03-01T14:36:02.697Z,7.00
2019-03-01T14:38:32.409Z,6.50
2019-03-01T14:41:03.402Z,6.00
2019-03-01T14:43:34.443Z,6.10
2019-03-01T14:46:05.490Z,6.20
2019-03-01T14:48:36.519Z,6.40
2019-03-01T14:51:10.653Z,6.20
2019-03-01T14:53:40.084Z,6.30
2019-03-01T14:56:15.233Z,5.90
2019-03-01T14:58:51.297Z,5.70
2019-03-01T15:01:29.807Z,5.50
2019-03-01T15:04:00.844Z,5.40
2019-03-01T15:06:31.879Z,5.30
2019-03-01T15:09:02.885Z,5.00
2019-03-01T15:11:35.463Z,5.10
2019-03-01T15:14:12.301Z,5.90
2019-03-01T15:16:39.392Z,7.50
2019-03-01T15:19:11.735Z,8.90
2019-03-01T15:21:42.718Z,10.70
2019-03-01T15:24:14.703Z,12.60
2019-03-01T15:26:46.279Z,14.00
2019-03-01T15:29:17.379Z,14.90
2019-03-01T15:31:51.061Z,15.60
2019-03-01T15:34:24.073Z,16.10
2019-03-01T15:36:56.124Z,16.20
2019-03-01T15:39:27.554Z,16.00
2019-03-01T15:41:58.584Z,15.40
2019-03-01T15:44:29.562Z,14.60
2019-03-01T15:47:00.586Z,12.50
2019-03-01T15:54:32.536Z,8.00
2019-03-01T15:57:07.038Z,7.40
2019-03-01T15:59:39.442Z,6.70
2019-03-01T16:02:11.103Z,6.00
2019-03-01T16:04:42.642Z,5.20
2019-03-01T16:07:14.006Z,4.60
2019-03-01T16:09:45.675Z,4.20
2019-03-01T16:12:17.225Z,3.80
2019-03-01T16:14:48.319Z,3.60
2019-03-01T16:17:21.920Z,3.20
2019-03-01T16:19:53.511Z,3.00
2019-03-01T16:22:25.412Z,2.80
2019-03-01T16:24:56.976Z,2.60
2019-03-01T16:27:28.442Z,2.40
2019-03-01T16:29:59.649Z,2.20
2019-03-01T16:32:31.008Z,2.10
2019-03-01T16:35:02.102Z,1.90
2019-03-01T16:37:33.254Z,1.70
2019-03-01T16:40:04.622Z,1.50
2019-03-01T16:45:08.867Z,1.30
2019-03-01T16:47:42.165Z,1.20
2019-03-01T16:50:14.008Z,1.00
2019-03-01T16:52:45.369Z,0.90
2019-03-01T16:55:17.303Z,0.80
2019-03-01T16:57:52.071Z,0.70
2019-03-01T17:00:21.264Z,0.60
2019-03-01T17:02:52.422Z,0.40
2019-03-01T17:05:23.386Z,0.40
2019-03-01T17:07:54.962Z,0.30
2019-03-01T17:10:26.422Z,0.20
2019-03-01T17:12:58.660Z,0.10
2019-03-01T17:15:59.752Z,0.10
2019-03-01T17:18:31.674Z,0.00
2019-03-01T17:21:04.106Z,0.00
2019-03-01T17:26:06.846Z,0.00
2019-03-01T17:33:39.674Z,-0.30
2019-03-01T17:36:12.999Z,-0.30
2019-03-01T17:38:46.038Z,-0.30
2019-03-01T17:41:16.405Z,-0.20
2019-03-01T17:43:47.444Z,-0.30
2019-03-01T17:46:18.774Z,-0.40
2019-03-01T17:48:49.754Z,-0.50
2019-03-01T17:51:21.003Z,-0.50
2019-03-01T17:53:53.014Z,-0.50
2019-03-01T17:56:25.130Z,-0.50
2019-03-01T17:58:56.118Z,-0.50
2019-03-01T18:01:27.055Z,-0.60
2019-03-01T18:06:30.058Z,-0.80
2019-03-01T18:09:01.018Z,-0.90
2019-03-01T18:11:33.658Z,-0.90
2019-03-01T18:14:05.010Z,-1.00
2019-03-01T18:16:36.274Z,-0.80
2019-03-01T18:19:08.331Z,-0.80
2019-03-01T18:21:39.298Z,-0.80
2019-03-01T18:24:11.102Z,-0.80
2019-03-01T18:26:43.146Z,-0.80
2019-03-01T18:29:14.243Z,-0.90
2019-03-01T18:31:45.539Z,-1.00
2019-03-01T18:34:16.582Z,-1.00
2019-03-01T18:36:47.590Z,-1.10
2019-03-01T18:39:19.455Z,-1.10
2019-03-01T18:41:50.595Z,-1.00
2019-03-01T18:44:22.361Z,-1.10
2019-03-01T18:46:55.383Z,-1.10
2019-03-01T18:49:27.262Z,-1.10
2019-03-01T18:51:58.303Z,-1.00
2019-03-01T18:54:29.499Z,-1.10
2019-03-01T18:57:00.790Z,-1.10
2019-03-01T19:04:34.707Z,-1.10
2019-03-01T19:07:05.682Z,-1.00
2019-03-01T19:12:09.400Z,-0.70
2019-03-01T19:14:40.429Z,-0.60
2019-03-01T19:19:41.562Z,-0.70
2019-03-01T19:22:12.538Z,-0.70
2019-03-01T19:24:46.766Z,-0.80
2019-03-01T19:27:16.097Z,-0.90
2019-03-01T19:29:58.646Z,-1.00
2019-03-01T19:32:29.650Z,-1.00
2019-03-01T19:35:00.627Z,-1.00
2019-03-01T19:37:31.701Z,-0.90
2019-03-01T19:40:02.618Z,-0.90
2019-03-01T19:42:34.148Z,-0.70
2019-03-01T19:45:06.010Z,-0.50
2019-03-01T19:50:09.576Z,-0.10
2019-03-01T19:52:43.480Z,0.00
2019-03-01T19:55:13.764Z,0.10
2019-03-01T19:57:44.758Z,0.20
2019-03-01T20:00:18.255Z,0.40
2019-03-01T20:02:49.241Z,0.30
2019-03-01T20:05:22.590Z,0.40
2019-03-01T20:07:54.841Z,0.50
2019-03-01T20:12:56.438Z,0.70
2019-03-01T20:15:27.514Z,0.70
2019-03-01T20:17:58.554Z,0.70
2019-03-01T20:20:33.133Z,0.80
2019-03-01T20:23:02.773Z,0.90
2019-03-01T20:25:33.697Z,0.90
2019-03-01T20:28:04.663Z,1.00
2019-03-01T20:30:35.762Z,0.90
2019-03-01T20:33:06.802Z,0.90
2019-03-01T20:35:37.878Z,0.80
2019-03-01T20:38:10.355Z,0.90
2019-03-01T20:40:41.463Z,0.80
2019-03-01T20:43:12.484Z,0.80
2019-03-01T20:48:13.834Z,0.70
2019-03-01T20:50:47.659Z,0.60
2019-03-01T20:53:17.709Z,0.40
2019-03-01T20:55:50.937Z,0.30
2019-03-01T20:58:22.195Z,0.30
2019-03-01T21:03:24.904Z,0.30
2019-03-01T21:05:56.354Z,0.40
2019-03-01T21:13:31.826Z,0.50
2019-03-01T21:16:03.090Z,0.50
2019-03-01T21:21:08.650Z,0.60
2019-03-01T21:23:39.725Z,0.50
2019-03-01T21:26:11.982Z,0.50
2019-03-01T21:28:43.798Z,0.40
2019-03-01T21:31:15.041Z,0.50
2019-03-01T21:33:46.214Z,0.50
2019-03-01T21:36:17.574Z,0.40
2019-03-01T21:38:49.232Z,0.40
2019-03-01T21:41:21.319Z,0.40
2019-03-01T21:43:52.446Z,0.40
2019-03-01T21:46:23.502Z,0.40
2019-03-01T21:51:26.586Z,0.40
2019-03-01T21:56:27.686Z,0.40
2019-03-01T21:58:58.662Z,0.40
2019-03-01T22:01:29.655Z,0.40
2019-03-01T22:04:02.504Z,0.50
2019-03-01T22:06:33.781Z,0.50
2019-03-01T22:09:06.965Z,0.50
2019-03-01T22:11:39.526Z,0.60
2019-03-01T22:14:10.853Z,0.60
2019-03-01T22:19:13.182Z,0.60
2019-03-01T22:21:44.134Z,0.60
2019-03-01T22:24:15.130Z,0.60
2019-03-01T22:26:46.680Z,0.60
2019-03-01T22:29:18.806Z,0.60
2019-03-01T22:31:49.775Z,0.50
2019-03-01T22:34:20.738Z,0.50
2019-03-01T22:36:52.834Z,0.60
2019-03-01T22:39:24.164Z,0.50
2019-03-01T22:41:55.122Z,0.50
2019-03-01T22:44:26.093Z,0.50
2019-03-01T22:46:57.938Z,0.50
2019-03-01T22:49:31.792Z,0.50
2019-03-01T22:54:32.398Z,0.50
2019-03-01T22:57:03.359Z,0.50
2019-03-01T22:59:34.365Z,0.50
2019-03-01T23:02:08.088Z,0.50
2019-03-01T23:04:40.350Z,0.50
2019-03-01T23:07:11.338Z,0.50
2019-03-01T23:09:42.677Z,0.50
2019-03-01T23:12:16.525Z,0.50
2019-03-01T23:14:47.587Z,0.50
2019-03-01T23:17:18.618Z,0.60
2019-03-01T23:19:51.613Z,0.50
2019-03-01T23:22:22.194Z,0.60
2019-03-01T23:24:53.282Z,0.50
2019-03-01T23:27:24.305Z,0.50
2019-03-01T23:32:25.839Z,0.50
2019-03-01T23:34:56.873Z,0.50
2019-03-01T23:40:00.923Z,0.50
2019-03-01T23:42:31.670Z,0.50
2019-03-01T23:45:02.618Z,0.40
2019-03-01T23:47:34.735Z,0.50
2019-03-01T23:50:07.354Z,0.50
2019-03-01T23:55:08.591Z,0.50
2019-03-01T23:57:41.125Z,0.50
